Time;durP1;ratioP1;P1;durP2;ratioP2;P2;SDS_P1;SDS_P2;PMS_P1;PMS_P2;Temp;Humidity;BMP_temperature;BMP_pressure;BME280_temperature;BME280_humidity;BME280_pressure;Samples;Min_cycle;Max_cycle;Signal;HPM_P1;HPM_P2
2023/11/12 00:00:51;;;;;;;4.35;1.42;;;9.20;99.90;;;;;;10100817;28;20025;-72
2023/11/12 00:05:42;;;;;;;3.95;1.42;;;9.10;99.90;;;;;;10097343;28;20025;-72
2023/11/12 00:10:33;;;;;;;2.63;1.27;;;9.10;99.90;;;;;;10100441;28;20025;-70
2023/11/12 00:15:23;;;;;;;3.00;1.40;;;9.10;99.90;;;;;;10099067;28;20036;-71
2023/11/12 00:20:15;;;;;;;2.85;1.70;;;9.10;99.90;;;;;;10099501;28;20071;-73
2023/11/12 00:25:07;;;;;;;4.65;1.45;;;9.20;99.90;;;;;;10099669;28;20060;-72
2023/11/12 00:29:58;;;;;;;4.50;1.90;;;9.20;99.90;;;;;;10098835;28;20454;-71
2023/11/12 00:34:48;;;;;;;2.95;1.70;;;9.20;99.90;;;;;;10092050;28;20136;-67
2023/11/12 00:39:40;;;;;;;4.68;2.03;;;9.20;99.90;;;;;;10096619;28;20059;-69
2023/11/12 00:44:31;;;;;;;4.53;1.80;;;9.10;99.90;;;;;;10097272;28;20117;-72
2023/11/12 00:49:21;;;;;;;5.00;2.10;;;9.20;99.90;;;;;;10097441;28;20146;-70
2023/11/12 00:54:12;;;;;;;3.17;1.40;;;9.20;99.90;;;;;;10098693;28;20043;-64
2023/11/12 00:59:05;;;;;;;2.75;1.23;;;9.10;99.90;;;;;;10099433;28;20411;-65
2023/11/12 01:03:56;;;;;;;2.17;1.42;;;9.10;99.90;;;;;;10098428;28;20033;-67
2023/11/12 01:08:46;;;;;;;2.78;1.83;;;9.00;99.90;;;;;;10098914;28;20031;-66
2023/11/12 01:13:37;;;;;;;5.72;1.73;;;9.00;99.90;;;;;;10097673;28;20143;-67
2023/11/12 01:18:31;;;;;;;2.95;1.98;;;9.00;99.90;;;;;;10094174;28;20382;-67
2023/11/12 01:23:22;;;;;;;2.22;1.10;;;9.00;99.90;;;;;;10097653;28;20568;-66
2023/11/12 01:28:12;;;;;;;2.50;1.55;;;9.00;99.90;;;;;;10097409;28;20017;-67
2023/11/12 01:33:03;;;;;;;3.10;1.70;;;9.00;99.90;;;;;;10096910;28;20652;-64
2023/11/12 01:37:54;;;;;;;3.17;1.88;;;9.00;99.90;;;;;;10096975;28;20025;-65
2023/11/12 01:42:45;;;;;;;3.88;1.80;;;8.90;99.90;;;;;;10092068;28;20394;-65
2023/11/12 01:47:37;;;;;;;4.13;1.65;;;8.90;99.90;;;;;;10078070;28;20442;-65
2023/11/12 01:52:28;;;;;;;1.95;1.23;;;8.90;99.90;;;;;;10096387;28;20514;-66
2023/11/12 01:57:19;;;;;;;2.35;1.50;;;8.90;99.90;;;;;;10098612;28;20025;-65
2023/11/12 02:02:09;;;;;;;2.03;1.35;;;8.80;99.90;;;;;;10096140;28;20021;-67
2023/11/12 02:07:01;;;;;;;1.80;1.13;;;8.80;99.90;;;;;;10096689;28;20501;-64
2023/11/12 02:11:54;;;;;;;3.65;1.60;;;8.70;99.90;;;;;;10095711;28;20032;-64
2023/11/12 02:16:45;;;;;;;2.22;1.20;;;8.80;99.90;;;;;;10091159;28;20043;-64
2023/11/12 02:21:36;;;;;;;2.25;1.40;;;8.70;99.90;;;;;;10095479;28;20036;-64
2023/11/12 02:26:27;;;;;;;2.28;1.25;;;8.70;99.90;;;;;;10095763;28;20029;-64
2023/11/12 02:31:17;;;;;;;2.58;1.20;;;8.60;99.90;;;;;;10095294;28;20017;-65
2023/11/12 02:36:08;;;;;;;2.35;1.85;;;8.60;99.90;;;;;;10095027;28;20056;-65
2023/11/12 02:41:01;;;;;;;2.03;1.30;;;8.70;99.90;;;;;;10090766;28;20025;-65
2023/11/12 02:45:51;;;;;;;3.85;1.50;;;8.60;99.90;;;;;;10095161;28;20033;-64
2023/11/12 02:50:43;;;;;;;3.47;1.50;;;8.50;99.90;;;;;;10092089;28;20078;-65
2023/11/12 02:55:34;;;;;;;5.38;1.35;;;8.50;99.90;;;;;;10102255;28;20052;-65
2023/11/12 03:00:29;;;;;;;3.50;1.42;;;8.50;99.90;;;;;;10103447;28;20483;-66
2023/11/12 03:05:20;;;;;;;4.60;2.03;;;8.40;99.90;;;;;;10103601;28;20033;-65
2023/11/12 03:10:10;;;;;;;1.88;1.20;;;8.50;99.90;;;;;;10102878;28;20166;-65
2023/11/12 03:15:01;;;;;;;2.85;1.80;;;8.40;99.90;;;;;;10098422;28;20187;-64
2023/11/12 03:19:52;;;;;;;2.42;1.17;;;8.40;99.90;;;;;;10100771;28;20029;-66
2023/11/12 03:24:42;;;;;;;2.95;1.90;;;8.40;99.90;;;;;;10102213;28;20028;-65
2023/11/12 03:29:33;;;;;;;3.47;1.60;;;8.30;99.90;;;;;;10094542;28;20110;-67
2023/11/12 03:34:24;;;;;;;4.60;2.20;;;8.30;99.90;;;;;;10094017;28;20049;-66
2023/11/12 03:39:15;;;;;;;4.35;1.73;;;8.30;99.90;;;;;;10095803;28;20067;-64
2023/11/12 03:44:07;;;;;;;2.25;1.63;;;8.30;99.90;;;;;;10096922;28;20037;-65
2023/11/12 03:48:57;;;;;;;4.47;1.75;;;8.40;99.90;;;;;;10097930;28;20056;-65
2023/11/12 03:53:49;;;;;;;3.20;1.55;;;8.30;99.90;;;;;;10099308;28;20060;-66
2023/11/12 03:58:39;;;;;;;1.63;1.52;;;8.30;99.90;;;;;;10101706;28;20406;-67
2023/11/12 04:03:30;;;;;;;2.92;1.73;;;8.40;99.90;;;;;;10104943;28;20039;-65
2023/11/12 04:08:20;;;;;;;2.17;1.60;;;8.30;99.90;;;;;;10100661;28;20028;-67
2023/11/12 04:13:11;;;;;;;2.38;1.58;;;8.40;99.90;;;;;;10100726;28;20073;-68
2023/11/12 04:18:01;;;;;;;2.75;1.95;;;8.40;99.90;;;;;;10101542;28;20094;-69
2023/11/12 04:22:52;;;;;;;4.05;2.22;;;8.30;99.90;;;;;;10100158;28;20028;-68
2023/11/12 04:27:44;;;;;;;4.10;1.60;;;8.30;99.90;;;;;;10099612;28;20029;-68
2023/11/12 04:32:36;;;;;;;4.70;1.70;;;8.20;99.90;;;;;;10099290;28;20053;-65
2023/11/12 04:37:26;;;;;;;6.32;2.50;;;8.30;99.90;;;;;;10099536;28;20446;-68
2023/11/12 04:42:17;;;;;;;2.58;1.70;;;8.30;99.90;;;;;;10098934;28;20560;-70
2023/11/12 04:47:08;;;;;;;4.78;1.73;;;8.20;99.90;;;;;;10096212;28;20070;-65
2023/11/12 04:52:00;;;;;;;3.55;2.08;;;8.20;99.90;;;;;;10097221;28;20075;-65
2023/11/12 04:56:50;;;;;;;3.75;2.42;;;8.20;99.90;;;;;;10095045;28;20049;-66
2023/11/12 05:01:41;;;;;;;3.20;2.20;;;8.10;99.90;;;;;;10098557;28;20071;-67
2023/11/12 05:06:32;;;;;;;4.47;2.38;;;8.20;99.90;;;;;;10098876;28;20036;-64
2023/11/12 05:11:22;;;;;;;2.58;1.80;;;8.20;99.90;;;;;;10098321;28;20021;-67
2023/11/12 05:16:13;;;;;;;2.97;1.83;;;8.10;99.90;;;;;;10091805;28;20537;-70
2023/11/12 05:21:07;;;;;;;3.45;2.13;;;8.10;99.90;;;;;;10098057;28;20514;-68
2023/11/12 05:25:59;;;;;;;5.78;2.88;;;8.10;99.90;;;;;;10089387;28;20113;-68
2023/11/12 05:30:50;;;;;;;4.15;2.35;;;8.10;99.90;;;;;;10093488;28;20435;-66
2023/11/12 05:35:41;;;;;;;4.00;1.88;;;8.10;99.90;;;;;;10071141;28;20057;-65
2023/11/12 05:40:31;;;;;;;4.75;2.30;;;8.00;99.90;;;;;;10096985;28;20116;-67
2023/11/12 05:45:22;;;;;;;4.68;2.15;;;8.10;99.90;;;;;;10096912;28;20506;-71
2023/11/12 05:50:12;;;;;;;3.35;2.00;;;8.00;99.90;;;;;;10095718;28;20024;-69
2023/11/12 05:55:03;;;;;;;4.28;2.78;;;7.90;99.90;;;;;;10096233;28;20398;-72
2023/11/12 05:59:54;;;;;;;3.40;2.33;;;8.00;99.90;;;;;;10096762;28;20023;-74
2023/11/12 06:04:44;;;;;;;3.45;2.60;;;8.00;99.90;;;;;;10094024;28;20395;-72
2023/11/12 06:09:35;;;;;;;3.45;2.58;;;8.00;99.90;;;;;;10096889;28;20566;-71
2023/11/12 06:14:26;;;;;;;4.43;2.30;;;8.00;99.90;;;;;;10094323;28;20032;-67
2023/11/12 06:19:16;;;;;;;4.57;2.67;;;8.00;99.90;;;;;;10091010;28;20032;-70
2023/11/12 06:24:07;;;;;;;2.92;1.98;;;8.00;99.90;;;;;;10093396;28;20037;-71
2023/11/12 06:28:58;;;;;;;4.65;2.03;;;8.00;99.90;;;;;;10094931;28;20017;-71
2023/11/12 06:33:48;;;;;;;5.40;1.90;;;8.10;99.90;;;;;;10095112;28;20048;-69
2023/11/12 06:38:48;;;;;;;3.05;2.15;;;8.10;99.90;;;;;;10093257;28;20029;-71
2023/11/12 06:43:39;;;;;;;5.28;2.10;;;8.10;99.90;;;;;;10094943;28;20025;-68
2023/11/12 06:48:29;;;;;;;3.83;2.38;;;8.10;99.90;;;;;;10094463;28;20033;-65
2023/11/12 06:53:20;;;;;;;3.35;2.58;;;8.10;99.90;;;;;;10091314;28;20082;-68
2023/11/12 06:58:10;;;;;;;3.58;2.08;;;8.10;99.90;;;;;;10095277;28;20029;-68
2023/11/12 07:03:01;;;;;;;7.43;2.25;;;8.10;99.90;;;;;;10095203;28;20234;-66
2023/11/12 07:07:52;;;;;;;5.53;2.15;;;8.10;99.90;;;;;;10094122;28;20033;-67
2023/11/12 07:12:43;;;;;;;4.38;2.50;;;8.20;99.90;;;;;;10095222;28;20582;-65
2023/11/12 07:17:34;;;;;;;3.25;2.20;;;8.10;99.90;;;;;;10093787;28;20051;-64
2023/11/12 07:22:26;;;;;;;2.38;1.98;;;8.10;99.90;;;;;;10095129;28;20021;-65
2023/11/12 07:27:16;;;;;;;4.30;2.33;;;8.20;99.90;;;;;;10094787;28;20037;-65
2023/11/12 07:32:07;;;;;;;4.43;1.90;;;8.10;99.90;;;;;;10094115;28;20410;-65
2023/11/12 07:36:57;;;;;;;4.40;1.92;;;8.20;99.90;;;;;;10091916;28;20052;-64
2023/11/12 07:41:48;;;;;;;3.00;2.17;;;8.20;99.90;;;;;;10096039;28;20029;-63
2023/11/12 07:46:42;;;;;;;4.32;1.67;;;8.20;99.90;;;;;;10098826;28;20040;-64
2023/11/12 07:51:33;;;;;;;1.75;1.30;;;8.20;99.90;;;;;;10097436;28;20031;-63
2023/11/12 07:56:24;;;;;;;4.63;1.85;;;8.10;99.90;;;;;;10096756;28;20156;-63
2023/11/12 08:01:15;;;;;;;4.05;1.60;;;8.20;99.90;;;;;;10098564;28;20108;-65
2023/11/12 08:06:09;;;;;;;2.70;2.05;;;8.20;99.90;;;;;;10100404;28;20021;-65
2023/11/12 08:11:00;;;;;;;4.00;1.73;;;8.20;99.90;;;;;;10099955;28;20070;-65
2023/11/12 08:15:51;;;;;;;2.55;1.77;;;8.30;99.90;;;;;;10100388;28;20040;-68
2023/11/12 08:20:42;;;;;;;7.68;1.45;;;8.30;99.90;;;;;;10095753;28;20659;-65
2023/11/12 08:25:32;;;;;;;2.67;1.55;;;8.30;99.90;;;;;;10100189;28;20083;-65
2023/11/12 08:30:23;;;;;;;2.80;1.30;;;8.30;99.90;;;;;;10100057;28;20025;-65
2023/11/12 08:35:14;;;;;;;3.58;1.88;;;8.30;99.90;;;;;;10099705;28;20055;-66
2023/11/12 08:40:06;;;;;;;3.60;1.55;;;8.30;99.90;;;;;;10099517;28;20029;-64
2023/11/12 08:44:57;;;;;;;3.38;1.60;;;8.40;99.90;;;;;;10099907;28;20033;-64
2023/11/12 08:49:47;;;;;;;2.33;1.75;;;8.40;99.90;;;;;;10098157;28;20033;-65
2023/11/12 08:54:38;;;;;;;2.97;1.65;;;8.40;99.90;;;;;;10089657;28;20250;-65
2023/11/12 08:59:29;;;;;;;3.30;1.67;;;8.50;99.90;;;;;;10087263;28;20021;-66
2023/11/12 09:04:20;;;;;;;4.50;1.83;;;8.50;99.90;;;;;;10092836;28;20017;-66
2023/11/12 09:09:12;;;;;;;2.70;1.80;;;8.60;99.90;;;;;;10098006;28;20025;-66
2023/11/12 09:14:04;;;;;;;3.72;1.58;;;8.70;99.90;;;;;;10097002;28;20032;-65
2023/11/12 09:18:55;;;;;;;2.65;1.73;;;8.70;99.90;;;;;;10099585;28;20033;-70
2023/11/12 09:23:46;;;;;;;4.97;2.47;;;8.60;99.90;;;;;;10091260;28;20034;-65
2023/11/12 09:28:36;;;;;;;1.80;1.55;;;8.60;99.90;;;;;;10098107;28;20040;-66
2023/11/12 09:33:27;;;;;;;2.53;1.65;;;8.50;99.90;;;;;;10094764;28;20091;-65
2023/11/12 09:38:17;;;;;;;4.47;1.95;;;8.50;99.90;;;;;;10091203;28;20586;-63
2023/11/12 09:43:09;;;;;;;3.70;1.88;;;8.50;99.90;;;;;;10091011;28;20036;-67
2023/11/12 09:48:14;;;;;;;4.13;1.65;;;8.60;99.90;;;;;;10089855;28;20638;-66
2023/11/12 09:53:05;;;;;;;3.03;1.75;;;8.60;99.90;;;;;;10095418;28;20048;-65
2023/11/12 09:57:57;;;;;;;3.65;2.40;;;8.60;99.90;;;;;;10094735;28;20024;-67
2023/11/12 10:02:47;;;;;;;2.92;1.73;;;8.60;99.90;;;;;;10093021;28;20033;-67
2023/11/12 10:07:39;;;;;;;3.97;1.80;;;8.70;99.90;;;;;;10093115;28;20040;-63
2023/11/12 10:12:30;;;;;;;3.75;1.70;;;8.70;99.90;;;;;;10094408;28;20046;-65
2023/11/12 10:17:20;;;;;;;2.53;1.58;;;8.80;99.90;;;;;;10093931;28;20104;-66
2023/11/12 10:22:11;;;;;;;2.45;1.58;;;8.80;99.90;;;;;;10096732;28;20092;-64
2023/11/12 10:27:04;;;;;;;3.90;1.73;;;8.90;99.90;;;;;;10079099;28;20063;-65
2023/11/12 10:31:55;;;;;;;2.22;1.40;;;9.00;99.90;;;;;;10096349;28;20029;-66
2023/11/12 10:37:13;;;;;;;4.22;1.95;;;9.00;99.90;;;;;;10093679;28;20128;-68
2023/11/12 10:42:04;;;;;;;6.05;2.25;;;9.00;99.90;;;;;;10090815;28;20083;-70
2023/11/12 10:46:57;;;;;;;6.68;2.20;;;8.90;99.90;;;;;;10095578;28;20037;-69
2023/11/12 10:51:48;;;;;;;4.07;1.73;;;9.00;99.90;;;;;;10091463;28;20483;-66
2023/11/12 10:56:39;;;;;;;3.47;2.05;;;9.00;99.90;;;;;;10095349;28;20048;-73
2023/11/12 11:01:34;;;;;;;3.85;2.53;;;9.00;99.90;;;;;;10094251;28;20056;-66
2023/11/12 11:06:26;;;;;;;2.45;1.75;;;8.90;99.90;;;;;;10092758;28;20036;-67
2023/11/12 11:11:18;;;;;;;3.75;1.98;;;8.90;99.90;;;;;;10094895;28;20527;-67
2023/11/12 11:16:09;;;;;;;2.88;1.85;;;9.00;99.90;;;;;;10097614;28;20031;-66
2023/11/12 11:21:02;;;;;;;3.10;2.10;;;9.10;99.90;;;;;;10102809;28;20033;-67
2023/11/12 11:26:32;;;;;;;3.63;2.03;;;9.10;99.90;;;;;;10103129;28;20548;-70
2023/11/12 11:31:23;;;;;;;2.65;1.33;;;9.10;99.90;;;;;;10103853;28;20024;-71
2023/11/12 11:36:16;;;;;;;5.03;2.28;;;9.20;99.90;;;;;;10103077;28;20349;-71
2023/11/12 11:41:08;;;;;;;4.55;2.00;;;9.20;99.90;;;;;;10102474;28;20040;-65
2023/11/12 11:46:12;;;;;;;3.03;1.50;;;9.20;99.90;;;;;;10103239;28;20024;-72
2023/11/12 11:51:28;;;;;;;1.75;1.20;;;9.30;99.90;;;;;;10094241;28;20594;-71
2023/11/12 11:56:27;;;;;;;2.72;1.50;;;9.30;99.90;;;;;;10096652;28;20083;-64
2023/11/12 12:01:18;;;;;;;2.58;1.13;;;9.30;99.90;;;;;;10094671;28;20478;-65
2023/11/12 12:06:19;;;;;;;2.45;1.35;;;9.30;99.90;;;;;;10095188;28;20025;-65
2023/11/12 12:11:17;;;;;;;3.03;1.35;;;9.30;99.90;;;;;;10097622;28;20503;-68
2023/11/12 12:16:08;;;;;;;1.67;1.58;;;9.30;99.90;;;;;;10101144;28;20029;-71
2023/11/12 12:21:03;;;;;;;3.22;2.58;;;9.30;99.90;;;;;;10101391;28;20024;-71
2023/11/12 12:25:54;;;;;;;3.30;0.93;;;9.20;99.90;;;;;;10099892;28;20025;-72
2023/11/12 12:30:51;;;;;;;2.55;1.20;;;9.20;99.90;;;;;;10101221;28;20024;-69
2023/11/12 12:35:43;;;;;;;1.60;0.90;;;9.20;99.90;;;;;;10073072;28;20053;-68
2023/11/12 12:40:34;;;;;;;2.63;1.20;;;9.20;99.90;;;;;;10100618;28;20029;-73
2023/11/12 12:45:24;;;;;;;1.75;1.00;;;9.20;99.90;;;;;;10100404;28;20450;-70
2023/11/12 12:50:21;;;;;;;1.60;0.93;;;9.30;99.90;;;;;;10099963;28;20079;-69
2023/11/12 12:55:16;;;;;;;2.63;0.75;;;9.30;99.90;;;;;;10099674;28;20657;-66
2023/11/12 13:00:10;;;;;;;0.80;0.77;;;9.20;99.90;;;;;;10100068;28;20139;-67
2023/11/12 13:05:01;;;;;;;2.55;0.95;;;9.30;99.90;;;;;;10099527;28;20082;-71
2023/11/12 13:09:51;;;;;;;1.83;0.88;;;9.20;99.90;;;;;;10099393;28;20771;-69
2023/11/12 13:14:42;;;;;;;3.47;0.95;;;9.20;99.90;;;;;;10098463;28;20044;-70
2023/11/12 13:19:33;;;;;;;1.75;1.30;;;9.10;99.90;;;;;;10097658;28;20044;-68
2023/11/12 13:24:24;;;;;;;2.58;1.10;;;9.20;99.90;;;;;;10098530;28;20082;-66
2023/11/12 13:29:15;;;;;;;1.05;0.77;;;9.10;99.90;;;;;;10099073;28;20115;-70
2023/11/12 13:34:10;;;;;;;1.45;1.00;;;9.10;99.90;;;;;;10098106;28;20056;-65
2023/11/12 13:39:01;;;;;;;1.13;0.83;;;9.10;99.90;;;;;;10088829;28;20025;-65
2023/11/12 13:43:52;;;;;;;1.58;1.10;;;9.10;99.90;;;;;;10077615;28;20114;-65
2023/11/12 13:48:43;;;;;;;0.98;0.80;;;9.10;99.90;;;;;;10097267;28;20029;-70
2023/11/12 13:53:35;;;;;;;1.42;0.98;;;9.10;99.90;;;;;;10097979;28;20041;-69
2023/11/12 13:58:25;;;;;;;1.67;1.08;;;9.00;99.90;;;;;;10097658;28;20037;-65
2023/11/12 14:03:17;;;;;;;1.23;0.85;;;9.00;99.90;;;;;;10097217;28;20021;-72
2023/11/12 14:08:09;;;;;;;2.45;1.08;;;9.00;99.90;;;;;;10079512;28;20033;-65
2023/11/12 14:13:02;;;;;;;2.30;1.27;;;9.10;99.90;;;;;;10095850;28;20037;-67
2023/11/12 14:17:53;;;;;;;1.67;1.55;;;9.10;99.90;;;;;;10098362;28;20068;-67
2023/11/12 14:22:46;;;;;;;2.50;1.35;;;9.10;99.90;;;;;;10097125;28;20567;-68
2023/11/12 14:27:38;;;;;;;2.47;1.13;;;9.00;99.90;;;;;;10095206;28;20087;-66
2023/11/12 14:32:29;;;;;;;2.30;1.70;;;9.00;99.90;;;;;;10095689;28;20043;-67
2023/11/12 14:37:20;;;;;;;2.47;1.83;;;8.90;99.90;;;;;;10079033;28;20651;-70
2023/11/12 14:42:11;;;;;;;3.47;1.90;;;8.80;99.90;;;;;;10094518;28;20029;-67
2023/11/12 14:47:01;;;;;;;4.35;1.52;;;8.80;99.90;;;;;;10094064;28;20449;-64
2023/11/12 14:51:52;;;;;;;2.00;1.30;;;8.80;99.90;;;;;;10093830;28;20031;-65
2023/11/12 14:56:42;;;;;;;1.98;1.27;;;8.80;99.90;;;;;;10095788;28;20041;-65
2023/11/12 15:01:34;;;;;;;2.97;1.20;;;8.90;99.90;;;;;;10095382;28;20025;-64
2023/11/12 15:06:25;;;;;;;3.65;2.17;;;8.80;99.90;;;;;;10095733;28;20025;-64
2023/11/12 15:11:17;;;;;;;2.40;1.45;;;8.90;99.90;;;;;;10095718;28;20024;-64
2023/11/12 15:16:09;;;;;;;2.60;1.65;;;8.90;99.90;;;;;;10098069;28;20687;-65
2023/11/12 15:21:02;;;;;;;2.80;1.80;;;8.90;99.90;;;;;;10094016;28;20052;-64
2023/11/12 15:25:52;;;;;;;2.38;1.98;;;8.80;99.90;;;;;;10095203;28;20474;-65
2023/11/12 15:30:43;;;;;;;2.72;1.90;;;8.90;99.90;;;;;;10095403;28;20025;-64
2023/11/12 15:35:34;;;;;;;5.38;2.15;;;8.90;99.90;;;;;;10094992;28;20057;-66
2023/11/12 15:40:24;;;;;;;3.35;2.28;;;8.90;99.90;;;;;;10094663;28;20056;-67
2023/11/12 15:45:16;;;;;;;1.60;1.38;;;8.80;99.90;;;;;;10094874;28;20033;-70
2023/11/12 15:50:10;;;;;;;2.08;1.52;;;8.80;99.90;;;;;;10094386;28;20075;-65
2023/11/12 15:55:03;;;;;;;3.40;1.70;;;8.80;99.90;;;;;;10094879;28;20706;-65
2023/11/12 15:59:53;;;;;;;2.67;2.17;;;8.70;99.90;;;;;;10098169;28;20162;-64
2023/11/12 16:04:44;;;;;;;3.05;2.10;;;8.80;99.90;;;;;;10102438;28;20215;-64
2023/11/12 16:09:34;;;;;;;2.67;2.25;;;8.70;99.90;;;;;;10098243;28;20033;-64
2023/11/12 16:14:25;;;;;;;2.92;2.05;;;8.70;99.90;;;;;;10091092;28;20114;-64
2023/11/12 16:19:16;;;;;;;4.63;2.50;;;8.80;99.90;;;;;;10096198;28;20024;-65
2023/11/12 16:24:07;;;;;;;2.38;1.73;;;8.70;99.90;;;;;;10095521;28;20032;-67
2023/11/12 16:28:58;;;;;;;4.78;2.13;;;8.80;99.90;;;;;;10099518;28;20478;-65
2023/11/12 16:33:49;;;;;;;3.00;2.00;;;8.80;99.90;;;;;;10100093;28;20507;-68
2023/11/12 16:38:40;;;;;;;3.45;1.80;;;8.80;99.90;;;;;;10098942;28;20406;-66
2023/11/12 16:43:31;;;;;;;2.58;1.77;;;8.80;99.90;;;;;;10099873;28;20433;-66
2023/11/12 16:48:22;;;;;;;4.38;2.08;;;8.80;99.90;;;;;;10099997;28;20028;-65
2023/11/12 16:53:12;;;;;;;4.10;2.30;;;8.70;99.90;;;;;;10099280;28;20406;-65
2023/11/12 16:58:03;;;;;;;3.45;2.15;;;8.70;99.90;;;;;;10099665;28;20111;-65
2023/11/12 17:02:54;;;;;;;2.80;1.50;;;8.70;99.90;;;;;;10099397;28;20390;-65
2023/11/12 17:07:45;;;;;;;1.77;1.55;;;8.80;99.90;;;;;;10098228;28;20036;-64
2023/11/12 17:12:36;;;;;;;4.28;2.03;;;8.80;99.90;;;;;;10098601;28;20501;-66
2023/11/12 17:17:26;;;;;;;3.22;2.13;;;8.80;99.90;;;;;;10094869;28;20033;-67
2023/11/12 17:22:17;;;;;;;3.10;1.70;;;8.70;99.90;;;;;;10098183;28;20104;-65
2023/11/12 17:27:07;;;;;;;3.08;2.60;;;8.70;99.90;;;;;;10097212;28;20390;-70
2023/11/12 17:31:58;;;;;;;3.05;2.00;;;8.70;99.90;;;;;;10091321;28;20763;-65
2023/11/12 17:36:49;;;;;;;2.65;1.90;;;8.80;99.90;;;;;;10082986;28;20049;-66
2023/11/12 17:41:39;;;;;;;3.38;2.50;;;8.70;99.90;;;;;;10091906;28;20033;-66
2023/11/12 17:46:31;;;;;;;3.28;2.15;;;8.80;99.90;;;;;;10093263;28;20086;-65
2023/11/12 17:51:22;;;;;;;3.55;2.08;;;8.70;99.90;;;;;;10092307;28;20037;-66
2023/11/12 17:56:13;;;;;;;3.08;1.65;;;8.80;99.90;;;;;;10079696;28;20116;-68
2023/11/12 18:01:04;;;;;;;2.22;1.70;;;8.70;99.90;;;;;;10097127;28;20020;-66
2023/11/12 18:05:55;;;;;;;3.58;1.67;;;8.70;99.90;;;;;;10097431;28;20055;-65
2023/11/12 18:10:45;;;;;;;2.28;1.77;;;8.70;99.90;;;;;;10078760;28;20029;-65
2023/11/12 18:15:36;;;;;;;3.90;1.67;;;8.80;99.90;;;;;;10092804;28;20055;-64
2023/11/12 18:20:29;;;;;;;2.47;2.00;;;8.70;99.90;;;;;;10096562;28;20100;-67
2023/11/12 18:25:20;;;;;;;2.72;1.65;;;8.70;99.90;;;;;;10097418;28;20040;-71
2023/11/12 18:30:11;;;;;;;2.75;1.55;;;8.70;99.90;;;;;;10096211;28;20479;-74
2023/11/12 18:35:02;;;;;;;3.45;2.22;;;8.70;99.90;;;;;;10096030;28;20589;-73
2023/11/12 18:39:53;;;;;;;3.70;2.50;;;8.70;99.90;;;;;;10096007;28;20013;-64
2023/11/12 18:44:44;;;;;;;3.75;2.65;;;8.80;99.90;;;;;;10096853;28;20104;-70
2023/11/12 18:49:34;;;;;;;3.47;2.20;;;8.80;99.90;;;;;;10095570;28;20052;-65
2023/11/12 18:54:25;;;;;;;5.07;2.35;;;8.80;99.90;;;;;;10090754;28;20037;-65
2023/11/12 18:59:15;;;;;;;4.07;2.88;;;8.80;99.90;;;;;;10088818;28;20021;-65
2023/11/12 19:04:06;;;;;;;4.65;3.45;;;8.80;99.90;;;;;;10092497;28;20029;-67
2023/11/12 19:08:58;;;;;;;3.40;2.15;;;8.80;99.90;;;;;;10095313;28;20376;-68
2023/11/12 19:13:50;;;;;;;3.85;2.65;;;8.90;99.90;;;;;;10092194;28;20049;-67
2023/11/12 19:18:40;;;;;;;4.50;2.78;;;8.80;99.90;;;;;;10095946;28;20055;-64
2023/11/12 19:23:31;;;;;;;4.78;2.35;;;8.80;99.90;;;;;;10095078;28;20036;-65
2023/11/12 19:28:22;;;;;;;3.80;2.25;;;8.90;99.90;;;;;;10095309;28;20032;-65
2023/11/12 19:33:12;;;;;;;2.55;2.30;;;8.80;99.90;;;;;;10094701;28;20422;-65
2023/11/12 19:38:03;;;;;;;3.88;2.45;;;8.80;99.90;;;;;;10102833;28;20029;-66
2023/11/12 19:42:54;;;;;;;3.80;2.35;;;8.90;99.90;;;;;;10101951;28;20024;-66
2023/11/12 19:47:45;;;;;;;3.95;2.38;;;8.90;99.90;;;;;;10102561;28;20035;-64
2023/11/12 19:52:37;;;;;;;3.47;2.42;;;8.90;99.90;;;;;;10100562;28;20104;-70
2023/11/12 19:57:27;;;;;;;4.95;2.85;;;8.90;99.90;;;;;;10101977;28;20061;-67
2023/11/12 20:02:18;;;;;;;4.10;3.28;;;8.90;99.90;;;;;;10101622;28;20394;-68
2023/11/12 20:07:09;;;;;;;4.53;3.17;;;8.90;99.90;;;;;;10101514;28;20021;-69
2023/11/12 20:12:00;;;;;;;6.03;2.92;;;9.00;99.90;;;;;;10101416;28;20036;-64
2023/11/12 20:16:57;;;;;;;3.47;2.95;;;8.90;99.90;;;;;;10104665;28;20155;-66
2023/11/12 20:21:48;;;;;;;3.63;2.25;;;8.90;99.90;;;;;;10099268;28;20040;-68
2023/11/12 20:26:46;;;;;;;6.47;2.75;;;9.00;99.90;;;;;;10101769;28;20400;-65
2023/11/12 20:31:37;;;;;;;4.07;2.53;;;9.00;99.90;;;;;;10100187;28;20029;-66
2023/11/12 20:36:27;;;;;;;4.50;3.15;;;9.00;99.90;;;;;;10099933;28;20053;-66
2023/11/12 20:41:20;;;;;;;3.55;2.80;;;9.00;99.90;;;;;;10100322;28;20406;-67
2023/11/12 20:46:11;;;;;;;6.25;2.97;;;9.00;99.90;;;;;;10081200;28;20028;-63
2023/11/12 20:51:02;;;;;;;5.43;3.90;;;9.00;99.90;;;;;;10099664;28;20717;-67
2023/11/12 20:55:53;;;;;;;5.85;3.50;;;9.10;99.90;;;;;;10104440;28;20036;-64
2023/11/12 21:00:43;;;;;;;4.35;2.92;;;9.10;99.90;;;;;;10099522;28;20028;-69
2023/11/12 21:05:35;;;;;;;5.05;3.25;;;9.10;99.90;;;;;;10099813;28;20391;-65
2023/11/12 21:10:27;;;;;;;7.22;4.10;;;9.20;99.90;;;;;;10098928;28;20057;-65
2023/11/12 21:15:17;;;;;;;5.72;4.10;;;9.20;99.90;;;;;;10099163;28;20043;-68
2023/11/12 21:20:09;;;;;;;8.50;3.97;;;9.20;99.90;;;;;;10074717;28;20036;-63
2023/11/12 21:24:59;;;;;;;8.57;3.78;;;9.20;99.90;;;;;;10065837;28;20113;-66
2023/11/12 21:29:50;;;;;;;4.53;3.85;;;9.30;99.90;;;;;;10070113;28;20476;-66
2023/11/12 21:34:41;;;;;;;4.35;3.40;;;9.30;99.90;;;;;;10097361;28;20136;-63
2023/11/12 21:39:35;;;;;;;4.43;3.25;;;9.30;99.90;;;;;;10084973;28;20120;-63
2023/11/12 21:44:25;;;;;;;6.05;3.72;;;9.30;99.90;;;;;;10096680;28;20082;-64
2023/11/12 21:49:16;;;;;;;6.22;3.95;;;9.30;99.90;;;;;;10091358;28;20108;-65
2023/11/12 21:54:07;;;;;;;7.03;4.38;;;9.30;99.90;;;;;;10090287;28;20047;-65
2023/11/12 21:59:00;;;;;;;4.78;4.03;;;9.30;99.90;;;;;;10079485;28;20033;-65
2023/11/12 22:03:51;;;;;;;6.15;3.97;;;9.20;99.90;;;;;;10084364;28;20033;-63
2023/11/12 22:08:42;;;;;;;5.78;4.25;;;9.20;99.90;;;;;;10091729;28;20025;-64
2023/11/12 22:13:33;;;;;;;5.25;3.70;;;9.30;99.90;;;;;;10086525;28;20045;-64
2023/11/12 22:18:23;;;;;;;7.00;4.68;;;9.30;99.90;;;;;;10084415;28;20541;-64
2023/11/12 22:23:14;;;;;;;6.38;3.50;;;9.30;99.90;;;;;;10096218;28;20027;-65
2023/11/12 22:28:05;;;;;;;7.15;4.97;;;9.30;99.90;;;;;;10096421;28;20112;-65
2023/11/12 22:32:55;;;;;;;7.03;4.60;;;9.30;99.90;;;;;;10096214;28;20059;-64
2023/11/12 22:37:47;;;;;;;7.15;3.92;;;9.30;99.90;;;;;;10092056;28;20055;-64
2023/11/12 22:42:37;;;;;;;6.55;4.15;;;9.20;99.90;;;;;;10096125;28;20086;-64
2023/11/12 22:47:28;;;;;;;6.88;5.00;;;9.30;99.90;;;;;;10096058;28;20092;-64
2023/11/12 22:52:20;;;;;;;7.32;4.90;;;9.30;99.90;;;;;;10095202;28;20017;-66
2023/11/12 22:57:11;;;;;;;8.80;4.93;;;9.40;99.90;;;;;;10096730;28;20040;-64
2023/11/12 23:02:04;;;;;;;8.55;4.82;;;9.40;99.90;;;;;;10091534;28;20021;-64
2023/11/12 23:06:55;;;;;;;6.78;4.55;;;9.40;99.90;;;;;;10086040;28;20021;-63
2023/11/12 23:11:45;;;;;;;7.78;4.43;;;9.50;99.90;;;;;;10096535;28;20037;-66
2023/11/12 23:16:37;;;;;;;6.28;4.25;;;9.50;99.90;;;;;;10096311;28;20411;-64
2023/11/12 23:21:27;;;;;;;5.70;3.63;;;9.50;99.90;;;;;;10102434;28;20040;-62
2023/11/12 23:26:18;;;;;;;7.00;4.88;;;9.60;99.90;;;;;;10102711;28;20098;-63
2023/11/12 23:31:10;;;;;;;5.30;3.78;;;9.60;99.90;;;;;;10102816;28;20552;-63
2023/11/12 23:36:02;;;;;;;6.55;3.40;;;9.60;99.90;;;;;;10101678;28;20129;-64
2023/11/12 23:40:53;;;;;;;12.80;4.32;;;9.60;99.90;;;;;;10102981;28;20021;-65
2023/11/12 23:45:45;;;;;;;6.72;3.85;;;9.60;99.90;;;;;;10107429;28;20025;-63
2023/11/12 23:50:35;;;;;;;2.05;1.67;;;9.70;99.90;;;;;;10084320;28;20029;-63
2023/11/12 23:55:26;;;;;;;6.82;2.28;;;9.70;99.90;;;;;;10102331;28;20068;-63
